sensor_id;sensor_type;location;lat;lon;timestamp;pressure;altitude;pressure_sealevel;temperature;humidity
28701;BME280;15877;52.344;16.790;2023-04-21T00:02:29;101123.84;;;14.29;60.59
28701;BME280;15877;52.344;16.790;2023-04-21T00:05:07;101125.48;;;14.27;60.68
28701;BME280;15877;52.344;16.790;2023-04-21T00:07:40;101122.31;;;14.25;60.41
28701;BME280;15877;52.344;16.790;2023-04-21T00:10:12;101110.65;;;14.16;60.33
28701;BME280;15877;52.344;16.790;2023-04-21T00:12:45;101116.19;;;14.22;60.51
28701;BME280;15877;52.344;16.790;2023-04-21T00:15:17;101121.73;;;14.20;60.59
28701;BME280;15877;52.344;16.790;2023-04-21T00:17:50;101118.93;;;14.19;60.65
28701;BME280;15877;52.344;16.790;2023-04-21T00:20:23;101120.09;;;14.18;60.59
28701;BME280;15877;52.344;16.790;2023-04-21T00:22:58;101121.66;;;14.16;60.76
28701;BME280;15877;52.344;16.790;2023-04-21T00:25:31;101120.29;;;14.15;60.68
28701;BME280;15877;52.344;16.790;2023-04-21T00:28:03;101122.26;;;14.14;61.10
28701;BME280;15877;52.344;16.790;2023-04-21T00:30:36;101117.90;;;14.12;60.91
28701;BME280;15877;52.344;16.790;2023-04-21T00:33:08;101114.00;;;14.08;60.67
28701;BME280;15877;52.344;16.790;2023-04-21T00:35:41;101116.17;;;14.09;60.60
28701;BME280;15877;52.344;16.790;2023-04-21T00:38:13;101114.66;;;14.05;60.75
28701;BME280;15877;52.344;16.790;2023-04-21T00:40:45;101118.09;;;14.05;60.73
28701;BME280;15877;52.344;16.790;2023-04-21T00:43:18;101118.54;;;14.00;60.83
28701;BME280;15877;52.344;16.790;2023-04-21T00:45:51;101113.33;;;13.98;60.92
28701;BME280;15877;52.344;16.790;2023-04-21T00:48:23;101109.81;;;13.93;60.89
28701;BME280;15877;52.344;16.790;2023-04-21T00:50:56;101115.52;;;13.91;60.97
28701;BME280;15877;52.344;16.790;2023-04-21T00:53:29;101111.88;;;13.88;61.04
28701;BME280;15877;52.344;16.790;2023-04-21T00:56:01;101110.40;;;13.87;61.23
28701;BME280;15877;52.344;16.790;2023-04-21T00:58:34;101098.23;;;13.77;60.78
28701;BME280;15877;52.344;16.790;2023-04-21T01:01:07;101110.55;;;13.83;60.98
28701;BME280;15877;52.344;16.790;2023-04-21T01:03:40;101106.96;;;13.78;61.11
28701;BME280;15877;52.344;16.790;2023-04-21T01:06:13;101109.14;;;13.79;61.18
28701;BME280;15877;52.344;16.790;2023-04-21T01:08:46;101109.87;;;13.72;61.17
28701;BME280;15877;52.344;16.790;2023-04-21T01:11:19;101109.31;;;13.68;61.32
28701;BME280;15877;52.344;16.790;2023-04-21T01:13:54;101110.88;;;13.66;61.16
28701;BME280;15877;52.344;16.790;2023-04-21T01:16:27;101111.63;;;13.68;61.09
28701;BME280;15877;52.344;16.790;2023-04-21T01:19:00;101110.75;;;13.64;61.13
28701;BME280;15877;52.344;16.790;2023-04-21T01:21:39;101108.98;;;13.60;61.23
28701;BME280;15877;52.344;16.790;2023-04-21T01:24:12;101108.65;;;13.55;61.28
28701;BME280;15877;52.344;16.790;2023-04-21T01:26:47;101107.23;;;13.48;61.40
28701;BME280;15877;52.344;16.790;2023-04-21T01:29:19;101104.98;;;13.44;61.70
28701;BME280;15877;52.344;16.790;2023-04-21T01:31:51;101095.16;;;13.36;61.69
28701;BME280;15877;52.344;16.790;2023-04-21T01:34:24;101107.94;;;13.40;61.66
28701;BME280;15877;52.344;16.790;2023-04-21T01:36:56;101106.63;;;13.39;61.57
28701;BME280;15877;52.344;16.790;2023-04-21T01:39:28;101107.69;;;13.40;61.87
28701;BME280;15877;52.344;16.790;2023-04-21T01:42:01;101107.98;;;13.39;61.73
28701;BME280;15877;52.344;16.790;2023-04-21T01:44:34;101107.33;;;13.38;61.47
28701;BME280;15877;52.344;16.790;2023-04-21T01:47:07;101109.16;;;13.38;61.42
28701;BME280;15877;52.344;16.790;2023-04-21T01:49:39;101111.21;;;13.33;61.25
28701;BME280;15877;52.344;16.790;2023-04-21T01:52:11;101107.52;;;13.32;61.35
28701;BME280;15877;52.344;16.790;2023-04-21T01:54:44;101112.42;;;13.30;61.40
28701;BME280;15877;52.344;16.790;2023-04-21T01:57:17;101105.20;;;13.28;61.57
28701;BME280;15877;52.344;16.790;2023-04-21T01:59:50;101109.33;;;13.23;61.77
28701;BME280;15877;52.344;16.790;2023-04-21T02:02:22;101093.93;;;13.13;61.78
28701;BME280;15877;52.344;16.790;2023-04-21T02:04:55;101101.34;;;13.19;61.86
28701;BME280;15877;52.344;16.790;2023-04-21T02:07:27;101101.77;;;13.17;61.63
28701;BME280;15877;52.344;16.790;2023-04-21T02:10:00;101103.38;;;13.11;61.38
28701;BME280;15877;52.344;16.790;2023-04-21T02:12:32;101105.33;;;13.09;61.39
28701;BME280;15877;52.344;16.790;2023-04-21T02:15:06;101106.13;;;13.09;61.35
28701;BME280;15877;52.344;16.790;2023-04-21T02:17:38;101106.69;;;13.08;61.52
28701;BME280;15877;52.344;16.790;2023-04-21T02:20:13;101106.60;;;13.05;61.37
28701;BME280;15877;52.344;16.790;2023-04-21T02:22:45;101105.77;;;13.03;61.67
28701;BME280;15877;52.344;16.790;2023-04-21T02:25:18;101098.16;;;12.97;61.60
28701;BME280;15877;52.344;16.790;2023-04-21T02:27:50;101100.41;;;12.97;61.82
28701;BME280;15877;52.344;16.790;2023-04-21T02:30:22;101095.19;;;12.85;61.31
28701;BME280;15877;52.344;16.790;2023-04-21T02:32:55;101107.47;;;12.89;61.37
28701;BME280;15877;52.344;16.790;2023-04-21T02:35:27;101104.50;;;12.84;61.33
28701;BME280;15877;52.344;16.790;2023-04-21T02:38:00;101108.52;;;12.82;61.52
28701;BME280;15877;52.344;16.790;2023-04-21T02:40:37;101106.88;;;12.78;61.41
28701;BME280;15877;52.344;16.790;2023-04-21T02:43:09;101102.88;;;12.73;61.55
28701;BME280;15877;52.344;16.790;2023-04-21T02:45:42;101110.66;;;12.70;61.44
28701;BME280;15877;52.344;16.790;2023-04-21T02:48:15;101112.45;;;12.64;61.45
28701;BME280;15877;52.344;16.790;2023-04-21T02:50:54;101112.52;;;12.61;61.62
28701;BME280;15877;52.344;16.790;2023-04-21T02:53:26;101111.87;;;12.57;61.60
28701;BME280;15877;52.344;16.790;2023-04-21T02:55:59;101119.42;;;12.53;61.67
28701;BME280;15877;52.344;16.790;2023-04-21T02:58:33;101122.85;;;12.50;61.97
28701;BME280;15877;52.344;16.790;2023-04-21T03:01:06;101118.91;;;12.46;61.96
28701;BME280;15877;52.344;16.790;2023-04-21T03:03:39;101106.50;;;12.33;61.98
28701;BME280;15877;52.344;16.790;2023-04-21T03:06:14;101110.92;;;12.38;62.06
28701;BME280;15877;52.344;16.790;2023-04-21T03:08:46;101108.40;;;12.33;62.29
28701;BME280;15877;52.344;16.790;2023-04-21T03:11:18;101106.47;;;12.29;62.48
28701;BME280;15877;52.344;16.790;2023-04-21T03:13:50;101105.20;;;12.26;62.62
28701;BME280;15877;52.344;16.790;2023-04-21T03:16:22;101103.08;;;12.24;62.79
28701;BME280;15877;52.344;16.790;2023-04-21T03:18:55;101100.89;;;12.25;62.78
28701;BME280;15877;52.344;16.790;2023-04-21T03:21:27;101103.79;;;12.27;62.96
28701;BME280;15877;52.344;16.790;2023-04-21T03:24:00;101103.83;;;12.29;62.65
28701;BME280;15877;52.344;16.790;2023-04-21T03:26:32;101104.86;;;12.25;62.70
28701;BME280;15877;52.344;16.790;2023-04-21T03:29:04;101101.69;;;12.22;62.62
28701;BME280;15877;52.344;16.790;2023-04-21T03:31:37;101102.66;;;12.22;62.75
28701;BME280;15877;52.344;16.790;2023-04-21T03:34:09;101100.38;;;12.21;62.82
28701;BME280;15877;52.344;16.790;2023-04-21T03:36:42;101102.34;;;12.20;63.06
28701;BME280;15877;52.344;16.790;2023-04-21T03:39:14;101103.70;;;12.20;62.87
28701;BME280;15877;52.344;16.790;2023-04-21T03:41:50;101105.96;;;12.21;62.97
28701;BME280;15877;52.344;16.790;2023-04-21T03:44:25;101109.05;;;12.24;63.02
28701;BME280;15877;52.344;16.790;2023-04-21T03:46:59;101109.08;;;12.24;62.82
28701;BME280;15877;52.344;16.790;2023-04-21T03:49:35;101105.04;;;12.26;62.71
28701;BME280;15877;52.344;16.790;2023-04-21T03:52:08;101109.43;;;12.30;62.53
28701;BME280;15877;52.344;16.790;2023-04-21T03:54:40;101106.59;;;12.27;62.58
28701;BME280;15877;52.344;16.790;2023-04-21T03:57:13;101107.69;;;12.24;62.84
28701;BME280;15877;52.344;16.790;2023-04-21T03:59:46;101107.36;;;12.26;63.14
28701;BME280;15877;52.344;16.790;2023-04-21T04:02:18;101103.11;;;12.25;62.97
28701;BME280;15877;52.344;16.790;2023-04-21T04:04:51;101106.09;;;12.26;62.90
28701;BME280;15877;52.344;16.790;2023-04-21T04:07:23;101107.26;;;12.28;62.82
28701;BME280;15877;52.344;16.790;2023-04-21T04:09:56;101106.02;;;12.27;62.65
28701;BME280;15877;52.344;16.790;2023-04-21T04:12:28;101095.95;;;12.22;62.46
28701;BME280;15877;52.344;16.790;2023-04-21T04:15:00;101111.10;;;12.29;62.79
28701;BME280;15877;52.344;16.790;2023-04-21T04:17:33;101110.63;;;12.30;62.70
28701;BME280;15877;52.344;16.790;2023-04-21T04:20:07;101114.53;;;12.30;62.72
28701;BME280;15877;52.344;16.790;2023-04-21T04:22:39;101119.45;;;12.29;62.92
28701;BME280;15877;52.344;16.790;2023-04-21T04:25:12;101122.09;;;12.27;62.91
28701;BME280;15877;52.344;16.790;2023-04-21T04:27:47;101121.27;;;12.28;63.03
28701;BME280;15877;52.344;16.790;2023-04-21T04:30:20;101123.52;;;12.29;63.08
28701;BME280;15877;52.344;16.790;2023-04-21T04:32:53;101125.14;;;12.31;63.15
28701;BME280;15877;52.344;16.790;2023-04-21T04:35:28;101126.71;;;12.33;62.89
28701;BME280;15877;52.344;16.790;2023-04-21T04:38:00;101120.45;;;12.31;62.93
28701;BME280;15877;52.344;16.790;2023-04-21T04:40:34;101121.25;;;12.34;62.88
28701;BME280;15877;52.344;16.790;2023-04-21T04:43:06;101123.54;;;12.39;62.81
28701;BME280;15877;52.344;16.790;2023-04-21T04:45:42;101110.14;;;12.35;62.76
28701;BME280;15877;52.344;16.790;2023-04-21T04:48:15;101122.30;;;12.44;62.69
28701;BME280;15877;52.344;16.790;2023-04-21T04:50:48;101120.61;;;12.47;62.97
28701;BME280;15877;52.344;16.790;2023-04-21T04:53:20;101122.59;;;12.46;63.19
28701;BME280;15877;52.344;16.790;2023-04-21T04:55:53;101128.39;;;12.48;62.88
28701;BME280;15877;52.344;16.790;2023-04-21T04:58:28;101128.91;;;12.51;62.79
28701;BME280;15877;52.344;16.790;2023-04-21T05:01:11;101127.80;;;12.54;62.87
28701;BME280;15877;52.344;16.790;2023-04-21T05:03:44;101129.08;;;12.57;62.54
28701;BME280;15877;52.344;16.790;2023-04-21T05:06:17;101125.48;;;12.63;62.64
28701;BME280;15877;52.344;16.790;2023-04-21T05:08:50;101124.94;;;12.66;62.20
28701;BME280;15877;52.344;16.790;2023-04-21T05:11:23;101111.20;;;12.62;62.16
28701;BME280;15877;52.344;16.790;2023-04-21T05:13:55;101124.29;;;12.72;62.48
28701;BME280;15877;52.344;16.790;2023-04-21T05:16:28;101124.27;;;12.75;62.29
28701;BME280;15877;52.344;16.790;2023-04-21T05:19:02;101123.20;;;12.77;62.19
28701;BME280;15877;52.344;16.790;2023-04-21T05:21:36;101122.81;;;12.74;62.26
28701;BME280;15877;52.344;16.790;2023-04-21T05:24:09;101121.77;;;12.77;61.93
28701;BME280;15877;52.344;16.790;2023-04-21T05:26:41;101124.31;;;12.87;61.93
28701;BME280;15877;52.344;16.790;2023-04-21T05:29:14;101111.73;;;12.80;61.87
28701;BME280;15877;52.344;16.790;2023-04-21T05:31:46;101127.89;;;12.90;62.36
28701;BME280;15877;52.344;16.790;2023-04-21T05:34:18;101121.41;;;12.99;61.94
28701;BME280;15877;52.344;16.790;2023-04-21T05:36:51;101124.27;;;13.04;61.66
28701;BME280;15877;52.344;16.790;2023-04-21T05:39:25;101121.27;;;13.13;61.28
28701;BME280;15877;52.344;16.790;2023-04-21T05:41:59;101123.80;;;13.18;60.64
28701;BME280;15877;52.344;16.790;2023-04-21T05:44:32;101122.83;;;13.25;60.10
28701;BME280;15877;52.344;16.790;2023-04-21T05:47:06;101110.70;;;13.28;59.58
28701;BME280;15877;52.344;16.790;2023-04-21T05:49:38;101123.87;;;13.39;59.06
28701;BME280;15877;52.344;16.790;2023-04-21T05:52:11;101124.39;;;13.34;59.13
28701;BME280;15877;52.344;16.790;2023-04-21T05:54:45;101125.54;;;13.39;58.60
28701;BME280;15877;52.344;16.790;2023-04-21T05:57:18;101128.20;;;13.41;58.37
28701;BME280;15877;52.344;16.790;2023-04-21T05:59:50;101118.68;;;13.39;58.55
28701;BME280;15877;52.344;16.790;2023-04-21T06:02:23;101129.29;;;13.62;58.40
28701;BME280;15877;52.344;16.790;2023-04-21T06:04:55;101127.73;;;13.60;58.27
28701;BME280;15877;52.344;16.790;2023-04-21T06:07:28;101111.76;;;13.59;58.37
28701;BME280;15877;52.344;16.790;2023-04-21T06:10:00;101124.31;;;13.76;58.37
28701;BME280;15877;52.344;16.790;2023-04-21T06:12:33;101125.67;;;13.80;58.33
28701;BME280;15877;52.344;16.790;2023-04-21T06:15:06;101128.05;;;13.83;58.47
28701;BME280;15877;52.344;16.790;2023-04-21T06:17:39;101123.86;;;13.89;58.81
28701;BME280;15877;52.344;16.790;2023-04-21T06:20:12;101125.67;;;13.84;58.67
28701;BME280;15877;52.344;16.790;2023-04-21T06:22:45;101120.47;;;13.91;59.20
28701;BME280;15877;52.344;16.790;2023-04-21T06:25:17;101120.48;;;13.80;58.33
28701;BME280;15877;52.344;16.790;2023-04-21T06:27:50;101123.91;;;13.92;58.46
28701;BME280;15877;52.344;16.790;2023-04-21T06:30:22;101117.77;;;14.00;57.72
28701;BME280;15877;52.344;16.790;2023-04-21T06:32:55;101119.21;;;13.93;58.42
28701;BME280;15877;52.344;16.790;2023-04-21T06:35:27;101119.25;;;14.11;57.64
28701;BME280;15877;52.344;16.790;2023-04-21T06:38:00;101121.33;;;14.11;57.34
28701;BME280;15877;52.344;16.790;2023-04-21T06:40:32;101119.81;;;14.11;57.53
28701;BME280;15877;52.344;16.790;2023-04-21T06:43:05;101115.75;;;14.20;57.40
28701;BME280;15877;52.344;16.790;2023-04-21T06:45:37;101113.25;;;14.31;57.29
28701;BME280;15877;52.344;16.790;2023-04-21T06:48:10;101111.90;;;14.40;57.33
28701;BME280;15877;52.344;16.790;2023-04-21T06:50:42;101101.10;;;14.45;56.57
28701;BME280;15877;52.344;16.790;2023-04-21T06:53:16;101112.52;;;14.58;56.13
28701;BME280;15877;52.344;16.790;2023-04-21T06:55:49;101115.32;;;14.63;56.63
28701;BME280;15877;52.344;16.790;2023-04-21T06:58:22;101118.16;;;14.52;56.94
28701;BME280;15877;52.344;16.790;2023-04-21T07:00:55;101123.05;;;14.62;55.74
28701;BME280;15877;52.344;16.790;2023-04-21T07:03:27;101123.17;;;14.80;56.38
28701;BME280;15877;52.344;16.790;2023-04-21T07:06:00;101118.29;;;14.89;57.20
28701;BME280;15877;52.344;16.790;2023-04-21T07:08:32;101110.71;;;14.96;56.32
28701;BME280;15877;52.344;16.790;2023-04-21T07:11:05;101114.65;;;14.97;55.83
28701;BME280;15877;52.344;16.790;2023-04-21T07:13:37;101101.21;;;15.02;55.49
28701;BME280;15877;52.344;16.790;2023-04-21T07:16:10;101110.45;;;15.22;55.35
28701;BME280;15877;52.344;16.790;2023-04-21T07:18:42;101112.84;;;15.27;55.52
28701;BME280;15877;52.344;16.790;2023-04-21T07:21:14;101111.66;;;15.28;55.97
28701;BME280;15877;52.344;16.790;2023-04-21T07:23:47;101106.93;;;15.27;55.76
28701;BME280;15877;52.344;16.790;2023-04-21T07:26:19;101114.72;;;15.40;55.00
28701;BME280;15877;52.344;16.790;2023-04-21T07:28:52;101113.25;;;15.47;55.38
28701;BME280;15877;52.344;16.790;2023-04-21T07:31:25;101113.32;;;15.54;55.12
28701;BME280;15877;52.344;16.790;2023-04-21T07:33:57;101110.45;;;15.55;54.89
28701;BME280;15877;52.344;16.790;2023-04-21T07:36:29;101116.02;;;15.58;54.72
28701;BME280;15877;52.344;16.790;2023-04-21T07:39:02;101115.30;;;15.53;54.58
28701;BME280;15877;52.344;16.790;2023-04-21T07:41:35;101110.27;;;15.65;54.69
28701;BME280;15877;52.344;16.790;2023-04-21T07:44:08;101109.85;;;15.78;54.83
28701;BME280;15877;52.344;16.790;2023-04-21T07:46:40;101110.20;;;15.81;54.41
28701;BME280;15877;52.344;16.790;2023-04-21T07:49:12;101110.91;;;15.86;55.13
28701;BME280;15877;52.344;16.790;2023-04-21T07:51:45;101111.96;;;15.94;55.28
28701;BME280;15877;52.344;16.790;2023-04-21T07:54:18;101110.96;;;15.98;55.04
28701;BME280;15877;52.344;16.790;2023-04-21T07:56:50;101097.92;;;15.92;53.75
28701;BME280;15877;52.344;16.790;2023-04-21T07:59:23;101109.45;;;16.06;54.11
28701;BME280;15877;52.344;16.790;2023-04-21T08:01:55;101110.28;;;16.11;53.78
28701;BME280;15877;52.344;16.790;2023-04-21T08:04:27;101103.68;;;16.23;54.41
28701;BME280;15877;52.344;16.790;2023-04-21T08:07:00;101107.41;;;16.19;53.11
28701;BME280;15877;52.344;16.790;2023-04-21T08:09:33;101101.37;;;16.24;53.14
28701;BME280;15877;52.344;16.790;2023-04-21T08:12:06;101103.64;;;16.35;52.72
28701;BME280;15877;52.344;16.790;2023-04-21T08:14:38;101107.43;;;16.44;52.78
28701;BME280;15877;52.344;16.790;2023-04-21T08:17:11;101104.69;;;16.51;51.69
28701;BME280;15877;52.344;16.790;2023-04-21T08:19:43;101099.30;;;16.58;51.75
28701;BME280;15877;52.344;16.790;2023-04-21T08:22:16;101104.13;;;16.59;50.75
28701;BME280;15877;52.344;16.790;2023-04-21T08:24:48;101101.48;;;16.69;51.86
28701;BME280;15877;52.344;16.790;2023-04-21T08:27:21;101099.45;;;16.76;52.11
28701;BME280;15877;52.344;16.790;2023-04-21T08:29:53;101093.89;;;16.84;51.30
28701;BME280;15877;52.344;16.790;2023-04-21T08:32:26;101090.87;;;16.89;50.97
28701;BME280;15877;52.344;16.790;2023-04-21T08:34:58;101080.63;;;16.90;51.91
28701;BME280;15877;52.344;16.790;2023-04-21T08:37:30;101086.23;;;17.03;51.52
28701;BME280;15877;52.344;16.790;2023-04-21T08:40:04;101090.27;;;17.05;51.00
28701;BME280;15877;52.344;16.790;2023-04-21T08:42:36;101089.20;;;17.14;50.50
28701;BME280;15877;52.344;16.790;2023-04-21T08:45:10;101078.86;;;17.17;51.33
28701;BME280;15877;52.344;16.790;2023-04-21T08:47:42;101081.80;;;17.27;50.65
28701;BME280;15877;52.344;16.790;2023-04-21T08:50:16;101083.48;;;17.30;49.92
28701;BME280;15877;52.344;16.790;2023-04-21T08:52:50;101082.41;;;17.39;50.97
28701;BME280;15877;52.344;16.790;2023-04-21T08:55:27;101080.42;;;17.49;51.92
28701;BME280;15877;52.344;16.790;2023-04-21T08:58:02;101081.16;;;17.57;52.62
28701;BME280;15877;52.344;16.790;2023-04-21T09:00:36;101084.25;;;17.65;51.99
28701;BME280;15877;52.344;16.790;2023-04-21T09:03:11;101081.07;;;17.77;50.92
28701;BME280;15877;52.344;16.790;2023-04-21T09:05:59;101081.73;;;17.85;50.64
28701;BME280;15877;52.344;16.790;2023-04-21T09:08:33;101079.27;;;17.96;49.87
28701;BME280;15877;52.344;16.790;2023-04-21T09:11:06;101076.95;;;18.00;49.10
28701;BME280;15877;52.344;16.790;2023-04-21T09:13:38;101077.99;;;17.95;47.66
28701;BME280;15877;52.344;16.790;2023-04-21T09:16:17;101075.27;;;18.10;47.84
28701;BME280;15877;52.344;16.790;2023-04-21T09:18:51;101079.48;;;18.21;47.70
28701;BME280;15877;52.344;16.790;2023-04-21T09:21:28;101073.86;;;18.34;47.13
28701;BME280;15877;52.344;16.790;2023-04-21T09:24:05;101074.55;;;18.46;46.76
28701;BME280;15877;52.344;16.790;2023-04-21T09:26:38;101075.52;;;18.56;45.48
28701;BME280;15877;52.344;16.790;2023-04-21T09:29:13;101076.23;;;18.65;45.29
28701;BME280;15877;52.344;16.790;2023-04-21T09:31:46;101076.70;;;18.74;44.54
28701;BME280;15877;52.344;16.790;2023-04-21T09:34:20;101064.39;;;18.75;43.39
28701;BME280;15877;52.344;16.790;2023-04-21T09:37:02;101073.31;;;18.81;43.44
28701;BME280;15877;52.344;16.790;2023-04-21T09:39:52;101070.16;;;18.93;44.39
28701;BME280;15877;52.344;16.790;2023-04-21T09:42:35;101066.60;;;19.00;44.20
28701;BME280;15877;52.344;16.790;2023-04-21T09:45:11;101070.29;;;19.03;44.47
28701;BME280;15877;52.344;16.790;2023-04-21T09:47:50;101057.02;;;18.98;44.13
28701;BME280;15877;52.344;16.790;2023-04-21T09:50:26;101065.17;;;19.26;43.49
28701;BME280;15877;52.344;16.790;2023-04-21T09:53:07;101056.63;;;19.36;43.93
28701;BME280;15877;52.344;16.790;2023-04-21T09:55:48;101059.40;;;19.46;44.73
28701;BME280;15877;52.344;16.790;2023-04-21T09:58:24;101050.75;;;19.54;44.59
28701;BME280;15877;52.344;16.790;2023-04-21T10:00:58;101057.70;;;19.66;44.56
28701;BME280;15877;52.344;16.790;2023-04-21T10:03:31;101054.85;;;19.69;43.69
28701;BME280;15877;52.344;16.790;2023-04-21T10:06:04;101055.13;;;19.79;43.66
28701;BME280;15877;52.344;16.790;2023-04-21T10:08:36;101053.95;;;19.88;42.84
28701;BME280;15877;52.344;16.790;2023-04-21T10:11:09;101043.95;;;19.89;43.62
28701;BME280;15877;52.344;16.790;2023-04-21T10:13:43;101043.20;;;20.06;43.40
28701;BME280;15877;52.344;16.790;2023-04-21T10:16:17;101037.60;;;19.98;44.23
28701;BME280;15877;52.344;16.790;2023-04-21T10:18:52;101048.68;;;20.19;43.94
28701;BME280;15877;52.344;16.790;2023-04-21T10:21:24;101043.43;;;20.30;43.92
28701;BME280;15877;52.344;16.790;2023-04-21T10:23:57;101040.42;;;20.35;42.89
28701;BME280;15877;52.344;16.790;2023-04-21T10:26:35;101027.07;;;20.31;43.34
28701;BME280;15877;52.344;16.790;2023-04-21T10:29:08;101034.66;;;20.49;43.40
28701;BME280;15877;52.344;16.790;2023-04-21T10:31:50;101039.73;;;20.59;42.01
28701;BME280;15877;52.344;16.790;2023-04-21T10:34:33;101033.02;;;20.69;42.30
28701;BME280;15877;52.344;16.790;2023-04-21T10:37:19;101034.48;;;20.76;42.78
28701;BME280;15877;52.344;16.790;2023-04-21T10:39:55;101025.43;;;20.76;42.41
28701;BME280;15877;52.344;16.790;2023-04-21T10:42:38;101031.11;;;20.83;42.65
28701;BME280;15877;52.344;16.790;2023-04-21T10:45:11;101031.05;;;20.97;42.28
28701;BME280;15877;52.344;16.790;2023-04-21T10:47:48;101029.07;;;21.08;42.39
28701;BME280;15877;52.344;16.790;2023-04-21T10:50:24;101030.94;;;21.07;43.31
28701;BME280;15877;52.344;16.790;2023-04-21T10:53:08;101023.00;;;21.02;42.28
28701;BME280;15877;52.344;16.790;2023-04-21T10:55:41;101019.14;;;21.21;40.77
28701;BME280;15877;52.344;16.790;2023-04-21T10:58:21;101018.92;;;21.26;41.01
28701;BME280;15877;52.344;16.790;2023-04-21T11:00:56;101020.58;;;21.36;42.42
28701;BME280;15877;52.344;16.790;2023-04-21T11:03:34;101016.32;;;21.41;41.82
28701;BME280;15877;52.344;16.790;2023-04-21T11:06:16;101014.40;;;21.46;41.48
28701;BME280;15877;52.344;16.790;2023-04-21T11:08:58;101010.05;;;21.44;41.78
28701;BME280;15877;52.344;16.790;2023-04-21T11:11:31;101008.77;;;21.56;41.09
28701;BME280;15877;52.344;16.790;2023-04-21T11:14:05;101007.82;;;21.71;41.60
28701;BME280;15877;52.344;16.790;2023-04-21T11:16:40;101007.02;;;21.84;41.33
28701;BME280;15877;52.344;16.790;2023-04-21T11:19:15;101006.86;;;21.90;41.31
28701;BME280;15877;52.344;16.790;2023-04-21T11:21:50;101000.92;;;21.97;40.53
28701;BME280;15877;52.344;16.790;2023-04-21T11:24:24;100997.83;;;21.99;39.86
28701;BME280;15877;52.344;16.790;2023-04-21T11:26:56;100986.90;;;21.99;39.76
28701;BME280;15877;52.344;16.790;2023-04-21T11:29:31;100996.66;;;22.11;41.36
28701;BME280;15877;52.344;16.790;2023-04-21T11:32:06;100988.66;;;22.21;40.77
28701;BME280;15877;52.344;16.790;2023-04-21T11:34:37;100985.63;;;22.27;39.12
28701;BME280;15877;52.344;16.790;2023-04-21T11:37:20;100984.91;;;22.35;38.80
28701;BME280;15877;52.344;16.790;2023-04-21T11:39:58;100986.02;;;22.42;39.25
28701;BME280;15877;52.344;16.790;2023-04-21T11:42:31;100986.31;;;22.52;38.95
28701;BME280;15877;52.344;16.790;2023-04-21T11:45:04;100978.56;;;22.58;38.82
28701;BME280;15877;52.344;16.790;2023-04-21T11:47:37;100974.19;;;22.66;38.11
28701;BME280;15877;52.344;16.790;2023-04-21T11:50:10;100972.08;;;22.71;37.90
28701;BME280;15877;52.344;16.790;2023-04-21T11:52:42;100967.11;;;22.72;38.16
28701;BME280;15877;52.344;16.790;2023-04-21T11:55:15;100967.17;;;22.74;37.95
28701;BME280;15877;52.344;16.790;2023-04-21T11:57:50;100956.60;;;22.71;37.66
28701;BME280;15877;52.344;16.790;2023-04-21T12:00:23;100955.99;;;22.74;37.10
28701;BME280;15877;52.344;16.790;2023-04-21T12:03:01;100969.33;;;22.80;37.52
28701;BME280;15877;52.344;16.790;2023-04-21T12:05:36;100965.12;;;22.79;36.77
28701;BME280;15877;52.344;16.790;2023-04-21T12:08:15;100963.14;;;22.77;35.82
28701;BME280;15877;52.344;16.790;2023-04-21T12:10:49;100955.73;;;22.75;35.90
28701;BME280;15877;52.344;16.790;2023-04-21T12:13:24;100956.66;;;22.73;36.89
28701;BME280;15877;52.344;16.790;2023-04-21T12:15:58;100958.14;;;22.76;36.23
28701;BME280;15877;52.344;16.790;2023-04-21T12:18:34;100955.55;;;22.80;37.64
28701;BME280;15877;52.344;16.790;2023-04-21T12:21:06;100936.61;;;22.64;36.53
28701;BME280;15877;52.344;16.790;2023-04-21T12:23:39;100949.47;;;22.81;37.15
28701;BME280;15877;52.344;16.790;2023-04-21T12:26:11;100943.63;;;22.93;36.95
28701;BME280;15877;52.344;16.790;2023-04-21T12:28:44;100936.73;;;23.02;37.40
28701;BME280;15877;52.344;16.790;2023-04-21T12:31:17;100928.80;;;23.01;35.06
28701;BME280;15877;52.344;16.790;2023-04-21T12:33:49;100934.69;;;23.03;34.80
28701;BME280;15877;52.344;16.790;2023-04-21T12:36:21;100929.54;;;23.05;34.79
28701;BME280;15877;52.344;16.790;2023-04-21T12:38:54;100928.23;;;23.10;37.32
28701;BME280;15877;52.344;16.790;2023-04-21T12:41:26;100927.80;;;23.14;38.75
28701;BME280;15877;52.344;16.790;2023-04-21T12:43:58;100928.19;;;23.19;38.64
28701;BME280;15877;52.344;16.790;2023-04-21T12:46:31;100923.32;;;23.23;36.76
28701;BME280;15877;52.344;16.790;2023-04-21T12:49:04;100926.05;;;23.24;36.40
28701;BME280;15877;52.344;16.790;2023-04-21T12:51:37;100913.96;;;23.25;36.08
28701;BME280;15877;52.344;16.790;2023-04-21T12:54:10;100912.12;;;23.23;35.93
28701;BME280;15877;52.344;16.790;2023-04-21T12:56:43;100909.73;;;23.22;36.53
28701;BME280;15877;52.344;16.790;2023-04-21T12:59:16;100908.89;;;23.20;35.20
28701;BME280;15877;52.344;16.790;2023-04-21T13:01:48;100900.16;;;23.15;34.18
28701;BME280;15877;52.344;16.790;2023-04-21T13:04:22;100907.11;;;23.23;34.00
28701;BME280;15877;52.344;16.790;2023-04-21T13:06:55;100906.14;;;23.19;33.38
28701;BME280;15877;52.344;16.790;2023-04-21T13:09:28;100890.59;;;23.08;32.54
28701;BME280;15877;52.344;16.790;2023-04-21T13:12:01;100900.53;;;23.13;33.10
28701;BME280;15877;52.344;16.790;2023-04-21T13:14:33;100902.02;;;23.16;32.72